WEATHER DATA

YESTERDAY
Time Temp. Dewp. Hum. Bar. 1h Prec. 24h Prec.
00:06 7.6 5.7 88 998.1 0.0000 0.0000
00:27 7.4 6 91 998.4 0.1200 0.1000
00:37 7.3 6.1 92 998.2 0.1200 0.1000
00:47 7.2 6.1 93 997.6 0.1200 0.1000
00:57 7.2 6.1 93 998.3 0.1200 0.1000
01:09 7.1 6.2 94 998.1 0.3600 0.4000
01:19 6.9 5.8 93 997.6 0.3600 0.4000
01:28 6.8 5.7 93 997.7 0.2400 0.4000
01:38 6.6 5.6 93 997.4 0.2400 0.4000
01:49 6.6 5.6 93 997.4 0.2400 0.4000
01:59 6.5 5.5 93 997.2 0.2400 0.4000
02:08 6.5 5.5 93 997 0.0000 0.4000
02:19 6.5 5.5 93 997 0.0000 0.4000
02:29 6.4 5.4 93 996.9 0.0000 0.4000
02:39 6.2 5.2 93 996.9 0.0000 0.4000
02:49 6.1 5.2 94 996.9 0.0000 0.4000
03:00 6 5.1 94 996.9 0.0000 0.4000
03:09 6 5.1 94 996.7 0.0000 0.4000
03:19 5.9 5 94 996.6 0.0000 0.4000
03:30 5.8 5.1 95 996.4 0.0000 0.4000
03:40 5.7 5 95 996.3 0.0000 0.4000
03:50 5.7 5.1 96 996.6 0.0000 0.4000
03:59 5.7 5.1 96 996.6 0.0000 0.4000
04:10 5.7 5.1 96 996.4 0.0000 0.4000
04:20 6.1 5.5 96 996.2 0.0000 0.4000
04:30 6.4 5.5 94 996 0.0000 0.4000
04:40 6.6 5.6 93 995.6 0.0000 0.4000
04:41 6.6 5.4 92 995.8 0.3610 0.7000
04:52 5.4 3.4 87 995.9 1.9250 2.3000
05:02 4.8 3.1 89 996 2.0450 2.4000
05:12 4.4 3.1 91 996 2.1650 2.5000
05:22 4.4 3.2 92 995.5 2.1650 2.5000
05:32 4.4 3.2 92 995 2.1650 2.5000
05:42 4.5 3.2 91 995.4 0.4810 2.5000
05:52 4.4 3.1 91 995.5 0.1200 2.5000
06:02 4.3 3 91 995.5 0.1200 2.6000
06:13 4.4 2.9 90 995.8 0.1200 2.6000
06:22 4.4 2.9 90 995.4 0.1200 2.6000
06:32 4.4 2.6 88 994.8 0.1200 2.6000
06:43 4.4 2.4 87 995 0.1200 2.6000
06:53 4.5 2.7 88 995.2 0.0000 2.6000
07:03 4.4 2.4 87 995 0.0000 2.6000
07:13 4.5 2.5 87 995.1 0.0000 2.6000
07:23 4.5 2.5 87 995.4 0.0000 2.6000
07:33 4.5 2.5 87 995.5 0.0000 2.6000
07:43 4.6 2.6 87 995.6 0.0000 2.6000
07:54 4.7 2.6 86 995.3 0.0000 2.6000
08:03 4.8 2.5 85 995.2 0.0000 2.6000
08:13 4.9 2.6 85 995 0.0000 2.6000
08:23 5 2.5 84 995.2 0.0000 2.6000
08:34 5.1 2.6 84 995.5 0.0000 2.6000
08:44 5.2 2.6 83 995.4 0.0000 2.6000
08:53 5.3 2.3 81 995.4 0.0000 2.6000
09:04 5.6 2.4 80 995.6 0.0000 2.6000
09:14 5.7 2.3 79 995.9 0.0000 2.6000
09:24 6.1 1.8 74 995.9 0.0000 2.6000
09:34 6.4 1.7 72 995.8 0.0000 2.6000
09:44 6.6 1.5 70 995.9 0.0000 2.6000
09:54 7 1.1 66 996 0.0000 2.6000
10:04 7.5 0.9 63 995.9 0.0000 2.6000
10:15 8 1.2 62 996 0.0000 2.6000
10:25 8.5 1.4 61 996 0.0000 2.6000
10:34 8.8 1 58 996.2 0.0000 2.6000
10:44 8.9 1.8 61 996.3 0.0000 2.6000
10:55 9.1 1.3 58 996.7 0.0000 2.6000
11:05 9.1 0.8 56 997 0.0000 2.6000
11:15 9.2 1.8 60 997.1 0.0000 2.6000
11:25 9.6 2.5 61 997.2 0.0000 2.6000
11:35 10.2 3 61 997.2 0.0000 2.6000
11:45 10.5 3.5 62 997.6 0.0000 2.6000
11:55 10.9 3.7 61 997.7 0.0000 2.6000
12:06 11.2 3.5 59 997.8 0.0000 2.6000
12:16 11.3 3.3 58 997.9 0.0000 2.6000
12:26 11.3 3.1 57 997.9 0.0000 2.6000
12:36 11.3 2.6 55 997.9 0.0000 2.6000
12:46 11.2 2.8 56 998.1 0.0000 2.6000
12:56 11.1 2.9 57 998.2 0.0000 2.6000
13:06 10.8 3.4 60 998.3 0.0000 2.6000
13:17 10.8 4.3 64 998.4 0.0000 2.6000
13:26 10.7 4.4 65 998.4 0.0000 2.6000
13:36 10.6 3.6 62 998.4 0.0000 2.6000
13:46 10.8 3.1 59 998.5 0.0000 2.6000
13:57 10.8 3.1 59 998.6 0.0000 2.6000
14:07 10.8 3.6 61 998.7 0.0000 2.6000
14:17 11 4 62 998.9 0.0000 2.6000
14:27 11.7 3.5 57 999 0.0000 2.6000
14:37 12.2 3.7 56 999.1 0.0000 2.6000
14:47 12.3 3 53 999.1 0.0000 2.6000
14:57 11.9 3.4 56 999.1 0.0000 2.6000
15:08 11.7 4.2 60 999 0.0000 2.6000
15:17 11.5 4.7 63 999.2 0.0000 2.6000
15:27 11.2 5.1 66 999.4 0.0000 2.6000
15:38 11.2 5.1 66 999.4 0.0000 2.6000
15:48 11.8 5.7 66 999.7 0.0000 2.6000
15:58 11.9 4.9 62 999.5 0.0000 2.6000
16:07 12 5.4 64 999.5 0.0000 2.6000
16:18 11.9 5.5 65 999.7 0.0000 2.6000
16:28 12 5.2 63 999.8 0.0000 2.6000
16:38 12.1 5.3 63 999.9 0.0000 2.6000
16:48 11.9 5.5 65 1000 0.0000 2.6000
16:58 11.8 5.2 64 1000.2 0.0000 2.6000
17:08 11.5 4.7 63 1000.2 0.0000 2.6000
17:18 10.9 3.4 60 1000.3 0.0000 2.6000
17:29 10.4 3.9 64 1000.6 0.0000 2.6000
17:39 10.1 3.6 64 1000.6 0.0000 2.6000
17:48 9.9 3.2 63 1000.6 0.0000 2.6000
17:59 9.7 3.2 64 1000.7 0.0000 2.6000
18:09 9.5 3 64 1000.7 0.0000 2.6000
18:19 9.4 3.2 65 1000.8 0.0000 2.6000
18:29 9.4 2.9 64 1000.9 0.0000 2.6000
18:39 9.3 2.6 63 1000.9 0.0000 2.6000
18:49 9 2.3 63 1000.9 0.0000 2.6000
18:59 8.8 1.9 62 1001 0.0000 2.6000
19:09 8.7 2.1 63 1001 0.0000 2.6000
19:20 8.4 2 64 1001.2 0.0000 2.6000
19:30 8.2 2.2 66 1001.3 0.0000 2.6000
19:39 8.1 2.3 67 1001.4 0.0000 2.6000
19:50 8 2.3 67 1001.3 0.0000 2.6000
20:00 7.9 2.4 68 1001.4 0.0000 2.6000
20:10 7.8 2.5 69 1001.6 0.0000 2.6000
20:20 7.7 2.6 70 1001.6 0.0000 2.6000
20:30 7.6 2.5 70 1001.6 0.0000 2.6000
20:40 7.5 2.6 71 1001.7 0.0000 2.6000
20:50 7.4 2.5 71 1001.6 0.0000 2.6000
21:01 7.3 2.4 71 1001.6 0.0000 2.6000
21:11 7.2 2.5 72 1001.6 0.0000 2.6000
21:21 7.2 2.5 72 1001.7 0.0000 2.6000
21:30 7.2 2.5 72 1001.7 0.0000 2.6000
21:41 7.1 2.6 73 1001.8 0.0000 2.6000
22:01 7.1 2.6 73 1002.1 0.0000 2.6000
22:12 7.2 2.7 73 1002.2 0.0000 2.6000
22:31 7 2.9 75 1002.1 0.0000 2.6000
22:41 6.9 3 76 1002 0.0000 2.6000
23:02 6.6 3.2 79 1002 0.0000 2.6000
23:22 6.4 3.2 80 1001.6 0.0000 2.6000
23:32 6.3 3.5 82 1001.4 0.0000 2.6000
23:42 6.1 3.4 83 1001.5 0.0000 2.6000
23:52 5.9 3.6 85 1001.4 0.0000

DAY STATISTIC

2020-09-26
TEMPERATURE
AVERAGE
7.9
HIGH
12.3
14:47
LOW
4.3
06:02
PRESSURE
AVERAGE
998.2
HIGH
1002.2
22:12
LOW
994.8
06:32
DEWPOINT
AVERAGE
3.5
HIGH
6.2
01:09
LOW
0.8
11:05
HUMIDITY
AVERAGE
75
HIGH
96
03:50
LOW
53
14:47
PRECIPITATION
RAIN HOUR
2.2
RAIN DAY
2.6
TEMPERATURE (°C)
LOW
4.3
HIGH
12.3
AVERAGE
7.9
PRESSURE (hpa)
LOW
994.8
HIGH
1002.2
AVERAGE
998.2
DEVICE